Time;durP1;ratioP1;P1;durP2;ratioP2;P2;SDS_P1;SDS_P2;PMS_P1;PMS_P2;Temp;Humidity;BMP_temperature;BMP_pressure;BME280_temperature;BME280_humidity;BME280_pressure;Samples;Min_cycle;Max_cycle;Signal;HPM_P1;HPM_P2
2023/05/12 00:00:55;;;;;;;3.20;2.90;;;14.10;99.90;;;;;;5013895;28;20502;-74
2023/05/12 00:03:21;;;;;;;4.27;3.77;;;14.10;99.90;;;;;;5014559;28;20156;-74
2023/05/12 00:05:47;;;;;;;3.73;3.43;;;14.10;99.90;;;;;;5013438;28;20413;-74
2023/05/12 00:08:12;;;;;;;3.90;3.47;;;14.20;99.90;;;;;;5013779;28;20309;-74
2023/05/12 00:10:38;;;;;;;3.13;2.93;;;14.20;99.90;;;;;;4996265;28;20221;-74
2023/05/12 00:13:04;;;;;;;5.00;4.30;;;14.20;99.90;;;;;;5013658;28;20194;-74
2023/05/12 00:15:29;;;;;;;4.70;4.20;;;14.20;99.90;;;;;;5013750;28;20533;-74
2023/05/12 00:17:55;;;;;;;3.90;3.57;;;14.20;99.90;;;;;;5014052;28;20659;-74
2023/05/12 00:20:20;;;;;;;3.40;3.10;;;14.20;99.90;;;;;;5013533;28;20598;-74
2023/05/12 00:22:46;;;;;;;5.10;4.70;;;14.10;99.90;;;;;;5013278;28;20593;-75
2023/05/12 00:25:11;;;;;;;5.03;3.90;;;14.10;99.90;;;;;;5013778;28;20179;-75
2023/05/12 00:27:37;;;;;;;4.37;3.97;;;14.10;99.90;;;;;;5013722;28;20254;-75
2023/05/12 00:30:03;;;;;;;4.43;4.13;;;14.10;99.90;;;;;;5013612;28;20218;-74
2023/05/12 00:32:29;;;;;;;4.47;3.73;;;14.00;99.90;;;;;;5013871;28;20189;-74
2023/05/12 00:34:55;;;;;;;4.40;4.00;;;13.90;99.90;;;;;;5013415;28;20456;-74
2023/05/12 00:37:21;;;;;;;4.87;4.50;;;14.00;99.90;;;;;;5013214;28;20196;-73
2023/05/12 00:39:46;;;;;;;3.60;3.30;;;14.10;99.90;;;;;;5013414;28;20437;-74
2023/05/12 00:42:12;;;;;;;4.07;3.77;;;14.10;99.90;;;;;;5013701;28;20190;-74
2023/05/12 00:44:38;;;;;;;4.97;4.57;;;14.10;99.90;;;;;;5014021;28;20179;-74
2023/05/12 00:47:04;;;;;;;5.90;5.40;;;14.00;99.90;;;;;;5013650;28;20262;-75
2023/05/12 00:49:30;;;;;;;6.73;4.57;;;14.00;99.90;;;;;;5014024;28;20213;-74
2023/05/12 00:51:57;;;;;;;5.50;5.00;;;14.00;99.90;;;;;;5013648;28;20449;-74
2023/05/12 00:54:25;;;;;;;5.50;5.10;;;14.10;99.90;;;;;;5013828;28;20781;-74
2023/05/12 00:56:50;;;;;;;4.73;4.43;;;14.00;99.90;;;;;;5013477;28;20435;-74
2023/05/12 00:59:16;;;;;;;6.33;5.73;;;14.00;99.90;;;;;;5013527;28;20454;-75
2023/05/12 01:01:42;;;;;;;5.80;5.27;;;14.10;99.90;;;;;;5013150;28;20214;-74
2023/05/12 01:04:08;;;;;;;5.67;5.17;;;14.10;99.90;;;;;;5013303;28;20414;-74
2023/05/12 01:06:52;;;;;;;5.97;5.47;;;14.10;99.90;;;;;;5015152;28;20178;-74
2023/05/12 01:09:18;;;;;;;5.00;4.50;;;14.10;99.90;;;;;;5017156;28;20456;-75
2023/05/12 01:11:44;;;;;;;6.83;6.00;;;14.00;99.90;;;;;;5017035;28;20451;-74
2023/05/12 01:14:09;;;;;;;6.63;6.03;;;14.00;99.90;;;;;;5017399;28;20421;-74
2023/05/12 01:16:41;;;;;;;6.20;5.60;;;14.00;99.90;;;;;;5017306;28;20596;-74
2023/05/12 01:19:19;;;;;;;5.10;4.70;;;13.90;99.90;;;;;;5016983;28;20259;-74
2023/05/12 01:21:44;;;;;;;7.07;6.47;;;14.00;99.90;;;;;;5016689;28;20429;-74
2023/05/12 01:24:11;;;;;;;8.43;7.70;;;14.00;99.90;;;;;;5016870;28;20409;-74
2023/05/12 01:26:37;;;;;;;9.40;8.60;;;14.00;99.90;;;;;;5017206;28;20261;-74
2023/05/12 01:29:03;;;;;;;9.70;8.90;;;13.90;99.90;;;;;;5016998;28;20540;-74
2023/05/12 01:31:29;;;;;;;8.63;7.90;;;13.90;99.90;;;;;;5016536;28;20195;-74
2023/05/12 01:33:55;;;;;;;9.67;8.87;;;13.90;99.90;;;;;;5016852;28;20409;-74
2023/05/12 01:36:20;;;;;;;9.00;8.20;;;14.00;99.90;;;;;;5016533;28;20410;-73
2023/05/12 01:38:46;;;;;;;9.40;8.37;;;14.00;99.90;;;;;;5016907;28;20178;-76
2023/05/12 01:41:11;;;;;;;8.17;7.37;;;14.10;99.90;;;;;;5016697;28;20277;-74
2023/05/12 01:43:37;;;;;;;7.80;7.20;;;14.10;99.90;;;;;;5016757;28;20186;-75
2023/05/12 01:46:02;;;;;;;8.90;8.10;;;14.10;99.90;;;;;;5017065;28;20179;-74
2023/05/12 01:48:28;;;;;;;7.73;7.00;;;14.10;99.90;;;;;;5018148;28;20197;-74
2023/05/12 01:50:54;;;;;;;8.73;8.03;;;14.20;99.90;;;;;;5016371;28;20178;-74
2023/05/12 01:53:19;;;;;;;9.37;8.27;;;14.10;99.90;;;;;;5016814;28;20175;-74
2023/05/12 01:55:45;;;;;;;10.07;9.13;;;14.00;99.90;;;;;;5016867;28;20536;-74
2023/05/12 01:58:10;;;;;;;11.43;10.43;;;14.10;99.90;;;;;;5016866;28;20173;-74
2023/05/12 02:00:36;;;;;;;10.37;9.47;;;14.10;99.90;;;;;;5016146;28;20183;-74
2023/05/12 02:03:01;;;;;;;10.63;9.67;;;14.00;99.90;;;;;;5015996;28;20300;-74
2023/05/12 02:05:27;;;;;;;10.80;9.90;;;14.00;99.90;;;;;;5016011;28;20254;-74
2023/05/12 02:07:53;;;;;;;9.47;8.50;;;13.90;99.90;;;;;;5015823;28;20203;-74
2023/05/12 02:10:18;;;;;;;10.53;9.63;;;13.90;99.90;;;;;;5016076;28;20737;-74
2023/05/12 02:12:44;;;;;;;11.77;10.67;;;13.90;99.90;;;;;;5015939;28;20215;-74
2023/05/12 02:15:09;;;;;;;10.03;9.13;;;13.80;99.90;;;;;;5016280;28;20247;-74
2023/05/12 02:17:35;;;;;;;11.03;10.10;;;13.80;99.90;;;;;;5016105;28;20180;-74
2023/05/12 02:20:01;;;;;;;11.37;10.30;;;13.60;99.90;;;;;;4998149;28;20182;-74
2023/05/12 02:22:26;;;;;;;11.90;10.80;;;13.60;99.90;;;;;;4998028;28;20225;-75
2023/05/12 02:24:52;;;;;;;10.00;9.20;;;13.70;99.90;;;;;;5015946;28;20658;-74
2023/05/12 02:27:17;;;;;;;10.90;9.90;;;13.50;99.90;;;;;;5016007;28;20633;-74
2023/05/12 02:29:43;;;;;;;10.60;9.70;;;13.40;99.90;;;;;;5015613;28;20207;-73
2023/05/12 02:32:08;;;;;;;11.73;10.63;;;13.60;99.90;;;;;;5015947;28;20237;-73
2023/05/12 02:34:34;;;;;;;10.00;8.97;;;13.40;99.90;;;;;;5015398;28;20250;-74
2023/05/12 02:36:59;;;;;;;12.53;11.33;;;13.50;99.90;;;;;;5015669;28;20179;-73
2023/05/12 02:39:25;;;;;;;12.30;11.20;;;13.50;99.90;;;;;;5015499;28;20185;-74
2023/05/12 02:41:50;;;;;;;11.30;10.40;;;13.40;99.90;;;;;;5015675;28;20351;-74
2023/05/12 02:44:16;;;;;;;14.03;12.63;;;13.50;99.90;;;;;;5015406;28;20664;-74
2023/05/12 02:46:42;;;;;;;12.10;11.00;;;13.60;99.90;;;;;;5015577;28;20173;-74
2023/05/12 02:49:07;;;;;;;12.17;11.07;;;13.60;99.90;;;;;;5014948;28;20487;-73
2023/05/12 02:51:33;;;;;;;12.43;11.17;;;13.60;99.90;;;;;;5015146;28;20679;-74
2023/05/12 02:53:59;;;;;;;12.30;11.20;;;13.60;99.90;;;;;;5015014;28;20546;-74
2023/05/12 02:56:24;;;;;;;11.47;10.43;;;13.60;99.90;;;;;;5015521;28;20215;-74
2023/05/12 02:58:50;;;;;;;12.50;11.40;;;13.20;99.90;;;;;;4997533;28;20186;-74
2023/05/12 03:01:15;;;;;;;12.80;11.60;;;13.20;99.90;;;;;;5014828;28;20200;-74
2023/05/12 03:03:41;;;;;;;14.53;13.03;;;13.30;99.90;;;;;;5015066;28;20194;-74
2023/05/12 03:06:07;;;;;;;11.67;10.63;;;13.40;99.90;;;;;;5014598;28;20178;-74
2023/05/12 03:08:32;;;;;;;12.67;11.47;;;13.50;99.90;;;;;;5014974;28;20201;-74
2023/05/12 03:10:58;;;;;;;13.30;12.10;;;13.50;99.90;;;;;;5015279;28;20183;-74
2023/05/12 03:13:23;;;;;;;12.47;11.37;;;13.50;99.90;;;;;;4997114;28;20249;-74
2023/05/12 03:15:49;;;;;;;11.67;10.67;;;13.50;99.90;;;;;;4996529;28;20650;-74
2023/05/12 03:18:15;;;;;;;14.33;12.93;;;13.60;99.90;;;;;;5013641;28;20226;-74
2023/05/12 03:20:40;;;;;;;13.83;12.60;;;13.60;99.90;;;;;;5014641;28;20640;-73
2023/05/12 03:23:06;;;;;;;16.83;12.40;;;13.40;99.90;;;;;;5014103;28;20270;-74
2023/05/12 03:25:33;;;;;;;12.70;11.50;;;13.40;99.90;;;;;;5014655;28;20171;-73
2023/05/12 03:28:00;;;;;;;13.50;12.30;;;13.20;99.90;;;;;;4995355;28;20200;-74
2023/05/12 03:30:26;;;;;;;14.03;12.83;;;13.20;99.90;;;;;;5014002;28;20923;-74
2023/05/12 03:32:51;;;;;;;15.57;13.90;;;13.20;99.90;;;;;;5014760;28;20428;-74
2023/05/12 03:35:17;;;;;;;13.10;11.90;;;13.30;99.90;;;;;;5014282;28;20162;-74
2023/05/12 03:37:42;;;;;;;15.17;13.57;;;13.40;99.90;;;;;;5013962;28;20255;-74
2023/05/12 03:40:09;;;;;;;14.10;12.83;;;13.50;99.90;;;;;;5014345;28;20204;-74
2023/05/12 03:42:34;;;;;;;12.83;11.63;;;13.40;99.90;;;;;;5014519;28;20749;-74
2023/05/12 03:45:00;;;;;;;15.33;13.93;;;13.40;99.90;;;;;;5014722;28;20461;-74
2023/05/12 03:47:25;;;;;;;13.90;12.60;;;13.50;99.90;;;;;;5014242;28;20694;-74
2023/05/12 03:49:51;;;;;;;13.33;11.90;;;13.60;99.90;;;;;;4996340;28;20286;-74
2023/05/12 03:52:16;;;;;;;13.40;12.20;;;13.60;99.90;;;;;;5013461;28;20195;-74
2023/05/12 03:54:42;;;;;;;16.13;14.53;;;13.60;99.90;;;;;;4996344;28;20193;-74
2023/05/12 03:57:07;;;;;;;14.70;13.13;;;13.50;99.90;;;;;;5014096;28;20164;-73
2023/05/12 03:59:33;;;;;;;13.90;12.60;;;13.50;99.90;;;;;;5014022;28;20177;-74
2023/05/12 04:01:59;;;;;;;15.50;14.10;;;13.40;99.90;;;;;;4996743;28;20254;-74
2023/05/12 04:04:24;;;;;;;14.83;13.43;;;13.30;99.90;;;;;;5013808;28;20654;-73
2023/05/12 04:06:50;;;;;;;16.17;14.57;;;13.40;99.90;;;;;;5013672;28;20204;-74
2023/05/12 04:09:15;;;;;;;15.03;13.23;;;13.30;99.90;;;;;;4996102;28;20201;-74
2023/05/12 04:11:42;;;;;;;16.10;14.50;;;13.50;99.90;;;;;;5013895;28;20195;-74
2023/05/12 04:14:07;;;;;;;14.77;13.40;;;13.40;99.90;;;;;;5014107;28;20194;-74
2023/05/12 04:16:34;;;;;;;14.53;13.23;;;13.30;99.90;;;;;;4996150;28;20412;-74
2023/05/12 04:19:00;;;;;;;13.67;12.37;;;13.30;99.90;;;;;;5013988;28;20592;-74
2023/05/12 04:21:26;;;;;;;14.50;13.10;;;12.90;99.90;;;;;;5013217;28;20461;-74
2023/05/12 04:23:51;;;;;;;15.40;13.90;;;12.70;99.90;;;;;;4996238;28;20448;-74
2023/05/12 04:26:17;;;;;;;14.10;12.70;;;12.70;99.90;;;;;;5013616;28;20172;-74
2023/05/12 04:28:43;;;;;;;12.57;11.30;;;12.60;99.90;;;;;;5013590;28;20279;-74
2023/05/12 04:31:08;;;;;;;14.37;13.10;;;12.60;99.90;;;;;;5013567;28;20202;-74
2023/05/12 04:33:34;;;;;;;14.43;12.80;;;12.70;99.90;;;;;;5013530;28;20172;-74
2023/05/12 04:35:59;;;;;;;13.30;11.87;;;12.80;99.90;;;;;;5013341;28;20181;-74
2023/05/12 04:38:26;;;;;;;15.43;14.00;;;13.00;99.90;;;;;;5013295;28;20172;-75
2023/05/12 04:40:56;;;;;;;16.03;14.43;;;13.00;99.90;;;;;;5013888;28;20168;-75
2023/05/12 04:43:21;;;;;;;15.73;14.00;;;13.10;99.90;;;;;;5013456;28;20506;-75
2023/05/12 04:45:49;;;;;;;18.13;16.33;;;13.00;99.90;;;;;;5013426;28;20557;-75
2023/05/12 04:48:15;;;;;;;15.23;13.73;;;13.00;99.90;;;;;;5012948;28;20217;-75
2023/05/12 04:50:41;;;;;;;15.33;13.93;;;13.10;99.90;;;;;;5014438;28;20423;-74
2023/05/12 04:53:07;;;;;;;14.40;12.90;;;13.10;99.90;;;;;;4996514;28;20279;-75
2023/05/12 04:55:32;;;;;;;15.70;14.17;;;13.40;99.90;;;;;;4996421;28;20854;-75
2023/05/12 04:57:58;;;;;;;14.20;12.80;;;13.60;99.90;;;;;;5013702;28;20185;-75
2023/05/12 05:00:23;;;;;;;16.47;15.00;;;13.70;99.90;;;;;;5013420;28;20696;-74
2023/05/12 05:02:49;;;;;;;14.30;13.00;;;13.70;99.90;;;;;;5013450;28;20219;-74
2023/05/12 05:05:15;;;;;;;13.70;12.30;;;13.30;99.90;;;;;;5013076;28;20202;-74
2023/05/12 05:07:40;;;;;;;14.63;13.20;;;13.20;99.90;;;;;;5013338;28;20255;-75
2023/05/12 05:10:06;;;;;;;16.57;14.97;;;13.10;99.90;;;;;;4995800;28;20261;-74
2023/05/12 05:12:32;;;;;;;17.70;16.00;;;13.10;99.90;;;;;;5013629;28;20218;-75
2023/05/12 05:14:57;;;;;;;17.87;15.27;;;13.40;99.90;;;;;;4996010;28;20466;-75
2023/05/12 05:17:23;;;;;;;14.80;13.27;;;13.20;99.90;;;;;;5014158;28;20184;-74
2023/05/12 05:19:48;;;;;;;14.57;13.10;;;13.10;99.90;;;;;;5014383;28;20185;-75
2023/05/12 05:22:14;;;;;;;14.13;12.73;;;13.10;99.90;;;;;;4997816;28;20622;-74
2023/05/12 05:24:40;;;;;;;13.83;12.53;;;13.30;99.90;;;;;;5017047;28;20177;-75
2023/05/12 05:27:05;;;;;;;15.77;14.10;;;13.40;99.90;;;;;;5019036;28;20792;-75
2023/05/12 05:29:31;;;;;;;14.33;12.93;;;13.40;99.90;;;;;;5016608;28;20566;-76
2023/05/12 05:31:57;;;;;;;13.67;12.30;;;13.60;99.90;;;;;;5014108;28;20232;-75
2023/05/12 05:34:22;;;;;;;16.23;14.20;;;13.80;99.90;;;;;;5014162;28;20161;-75
2023/05/12 05:36:48;;;;;;;15.37;13.30;;;13.70;99.90;;;;;;5013319;28;20233;-74
2023/05/12 05:39:13;;;;;;;17.03;15.10;;;13.60;99.90;;;;;;5013914;28;20209;-75
2023/05/12 05:41:39;;;;;;;15.60;14.10;;;13.70;99.90;;;;;;5012917;28;20202;-76
2023/05/12 05:44:04;;;;;;;16.00;14.50;;;13.70;99.90;;;;;;5013157;28;20179;-76
2023/05/12 05:46:30;;;;;;;16.10;14.50;;;13.80;99.90;;;;;;5013342;28;20185;-75
2023/05/12 05:48:55;;;;;;;14.63;13.00;;;13.90;99.90;;;;;;5012200;28;20287;-75
2023/05/12 05:51:21;;;;;;;14.27;12.97;;;14.10;99.90;;;;;;5013184;28;20186;-75
2023/05/12 05:53:47;;;;;;;14.43;12.93;;;14.20;99.90;;;;;;5017696;28;20213;-76
2023/05/12 05:56:12;;;;;;;13.60;12.40;;;14.20;99.90;;;;;;5016721;28;20168;-74
2023/05/12 05:58:38;;;;;;;13.73;12.47;;;14.30;99.90;;;;;;5016722;28;20255;-76
2023/05/12 06:01:03;;;;;;;13.57;12.27;;;14.50;99.90;;;;;;5016246;28;20178;-76
2023/05/12 06:03:29;;;;;;;13.43;12.03;;;14.40;99.90;;;;;;5016258;28;20168;-76
2023/05/12 06:05:55;;;;;;;13.23;12.03;;;14.30;99.90;;;;;;5016089;28;20548;-75
2023/05/12 06:08:20;;;;;;;13.77;12.47;;;14.40;99.90;;;;;;5016883;28;20668;-75
2023/05/12 06:10:46;;;;;;;15.53;13.97;;;14.50;99.90;;;;;;5016279;28;20905;-74
2023/05/12 06:13:12;;;;;;;13.80;12.40;;;14.20;99.90;;;;;;5016226;28;20174;-74
2023/05/12 06:15:37;;;;;;;13.97;12.57;;;14.20;99.90;;;;;;5016491;28;20253;-74
2023/05/12 06:18:03;;;;;;;15.90;14.30;;;14.40;99.90;;;;;;5016305;28;20174;-75
2023/05/12 06:20:28;;;;;;;12.77;11.57;;;14.50;99.90;;;;;;5015546;28;20186;-75
2023/05/12 06:22:54;;;;;;;13.83;12.40;;;14.60;99.90;;;;;;5015941;28;20561;-75
2023/05/12 06:25:20;;;;;;;12.87;11.67;;;14.50;99.90;;;;;;5016084;28;20245;-76
2023/05/12 06:27:45;;;;;;;12.63;11.50;;;14.20;99.90;;;;;;4998402;28;20266;-76
2023/05/12 06:30:11;;;;;;;14.37;13.00;;;14.00;99.90;;;;;;5015867;28;20163;-76
2023/05/12 06:32:37;;;;;;;12.60;11.30;;;14.20;99.90;;;;;;5015616;28;20184;-76
2023/05/12 06:35:02;;;;;;;11.83;10.73;;;14.00;99.90;;;;;;5015347;28;20931;-75
2023/05/12 06:37:28;;;;;;;12.37;11.23;;;14.20;99.90;;;;;;5009823;28;20174;-75
2023/05/12 06:39:53;;;;;;;12.50;11.30;;;14.40;99.90;;;;;;5004561;28;20184;-75
2023/05/12 06:42:19;;;;;;;12.60;11.30;;;14.30;99.90;;;;;;4981142;28;20202;-76
2023/05/12 06:44:45;;;;;;;12.40;11.20;;;14.50;99.90;;;;;;5005382;28;20253;-75
2023/05/12 06:47:10;;;;;;;12.50;11.30;;;14.70;99.90;;;;;;5005228;28;20166;-75
2023/05/12 06:49:37;;;;;;;12.17;10.97;;;14.50;99.90;;;;;;5005735;28;20194;-74
2023/05/12 06:52:04;;;;;;;12.30;11.00;;;14.40;99.90;;;;;;4996146;28;20317;-74
2023/05/12 06:54:30;;;;;;;12.00;10.90;;;14.20;99.90;;;;;;4997077;28;20850;-75
2023/05/12 06:56:55;;;;;;;12.47;11.37;;;14.50;99.90;;;;;;4978196;28;20514;-75
2023/05/12 06:59:21;;;;;;;11.93;10.80;;;14.80;99.90;;;;;;4995952;28;20172;-73
2023/05/12 07:01:46;;;;;;;12.93;11.83;;;15.00;99.90;;;;;;4995614;28;20213;-75
2023/05/12 07:04:12;;;;;;;10.97;9.90;;;14.80;99.90;;;;;;4994377;28;20180;-74
2023/05/12 07:06:37;;;;;;;10.63;9.63;;;14.70;99.90;;;;;;4995742;28;20567;-75
2023/05/12 07:09:03;;;;;;;13.37;12.07;;;14.90;99.90;;;;;;4995652;28;20202;-75
2023/05/12 07:11:29;;;;;;;11.27;10.10;;;15.10;99.90;;;;;;4995783;28;20263;-75
2023/05/12 07:13:55;;;;;;;11.93;10.80;;;15.20;99.90;;;;;;5001199;28;20180;-74
2023/05/12 07:16:20;;;;;;;10.33;9.30;;;15.30;99.90;;;;;;5005758;28;20195;-74
2023/05/12 07:18:46;;;;;;;11.10;10.10;;;15.20;99.90;;;;;;5005821;28;20421;-74
2023/05/12 07:21:12;;;;;;;11.37;10.27;;;15.40;99.90;;;;;;5004528;28;20203;-75
2023/05/12 07:23:38;;;;;;;9.40;8.60;;;15.70;99.90;;;;;;5006513;28;20177;-75
2023/05/12 07:26:05;;;;;;;10.00;9.00;;;15.80;99.90;;;;;;5015271;28;20423;-74
2023/05/12 07:28:34;;;;;;;9.97;8.67;;;15.90;99.90;;;;;;5014899;28;21011;-75
2023/05/12 07:31:00;;;;;;;9.30;8.40;;;15.90;99.90;;;;;;5014688;28;20429;-75
2023/05/12 07:33:26;;;;;;;10.20;9.20;;;15.50;99.90;;;;;;4997193;28;20782;-74
2023/05/12 07:35:51;;;;;;;10.70;9.70;;;15.50;99.90;;;;;;5013973;28;20405;-75
2023/05/12 07:38:17;;;;;;;10.47;9.47;;;15.30;99.90;;;;;;5014044;28;20164;-75
2023/05/12 07:40:43;;;;;;;10.60;9.50;;;15.20;99.90;;;;;;5014090;28;20638;-75
2023/05/12 07:43:09;;;;;;;13.47;8.97;;;14.90;99.90;;;;;;5014475;28;20214;-74
2023/05/12 07:45:35;;;;;;;10.60;8.30;;;14.80;99.90;;;;;;5014536;28;20409;-74
2023/05/12 07:48:00;;;;;;;8.67;7.77;;;15.10;99.90;;;;;;5014102;28;21025;-74
2023/05/12 07:50:26;;;;;;;7.47;6.87;;;15.40;99.90;;;;;;5004837;28;20175;-74
2023/05/12 07:52:52;;;;;;;7.07;6.47;;;15.40;99.90;;;;;;5003177;28;20247;-74
2023/05/12 07:55:20;;;;;;;8.13;7.43;;;15.60;99.90;;;;;;5004198;28;20225;-75
2023/05/12 07:57:46;;;;;;;7.70;6.90;;;15.90;99.90;;;;;;5004944;28;20860;-75
2023/05/12 08:00:13;;;;;;;5.97;5.03;;;16.50;99.90;;;;;;5008741;28;20442;-74
2023/05/12 08:02:39;;;;;;;5.27;4.87;;;16.60;99.90;;;;;;5014190;28;20446;-74
2023/05/12 08:05:07;;;;;;;5.97;5.47;;;16.20;99.90;;;;;;5013921;28;20558;-75
2023/05/12 08:07:33;;;;;;;5.97;5.47;;;16.30;99.90;;;;;;5008058;28;20500;-75
2023/05/12 08:09:58;;;;;;;5.83;5.27;;;16.10;99.90;;;;;;5003400;28;20557;-75
2023/05/12 08:12:24;;;;;;;5.30;4.90;;;16.10;99.90;;;;;;5004017;28;20271;-75
2023/05/12 08:14:49;;;;;;;7.20;6.50;;;16.20;99.90;;;;;;5005433;28;20259;-75
2023/05/12 08:17:15;;;;;;;7.37;6.70;;;16.30;99.90;;;;;;5003708;28;20165;-75
2023/05/12 08:19:41;;;;;;;7.30;6.50;;;16.40;99.90;;;;;;5005220;28;20172;-74
2023/05/12 08:22:06;;;;;;;6.20;5.70;;;16.50;99.90;;;;;;5003677;28;20289;-74
2023/05/12 08:24:32;;;;;;;6.03;5.50;;;16.60;99.90;;;;;;5005074;28;20240;-75
2023/05/12 08:26:57;;;;;;;5.70;5.20;;;16.70;99.90;;;;;;5014149;28;20174;-75
2023/05/12 08:29:23;;;;;;;5.70;5.20;;;16.40;99.90;;;;;;5013752;28;20257;-74
2023/05/12 08:31:48;;;;;;;4.73;4.40;;;16.60;99.90;;;;;;5013696;28;20247;-76
2023/05/12 08:34:14;;;;;;;5.20;4.43;;;16.70;99.90;;;;;;5014125;28;20156;-75
2023/05/12 08:36:40;;;;;;;5.03;4.60;;;17.00;99.90;;;;;;5013572;28;20160;-76
2023/05/12 08:39:07;;;;;;;4.33;3.93;;;17.00;99.90;;;;;;5014037;28;20171;-75
2023/05/12 08:41:43;;;;;;;3.73;3.43;;;17.10;99.90;;;;;;5013770;28;20211;-75
2023/05/12 08:44:10;;;;;;;3.73;3.43;;;17.40;99.90;;;;;;5012643;28;20430;-74
2023/05/12 08:46:36;;;;;;;4.40;4.10;;;17.20;99.90;;;;;;5013741;28;20407;-74
2023/05/12 08:49:03;;;;;;;3.80;3.50;;;17.10;99.90;;;;;;5013733;28;20513;-75
2023/05/12 08:51:31;;;;;;;5.60;5.10;;;17.00;99.90;;;;;;4992433;28;20191;-74
2023/05/12 08:53:57;;;;;;;5.33;4.83;;;16.70;99.90;;;;;;5013978;28;20435;-75
2023/05/12 08:56:23;;;;;;;5.77;4.53;;;16.80;99.90;;;;;;5014090;28;20854;-75
2023/05/12 08:58:50;;;;;;;4.77;4.30;;;16.80;99.90;;;;;;5014022;28;20180;-75
2023/05/12 09:01:16;;;;;;;4.57;4.17;;;16.90;99.90;;;;;;5014464;28;20514;-74
2023/05/12 09:03:42;;;;;;;4.97;4.57;;;17.20;99.90;;;;;;5014549;28;20392;-74
2023/05/12 09:06:09;;;;;;;4.53;4.23;;;17.30;99.90;;;;;;5014128;28;20407;-74
2023/05/12 09:08:36;;;;;;;4.77;4.37;;;17.50;99.90;;;;;;5014675;28;20215;-74
2023/05/12 09:11:02;;;;;;;4.47;4.07;;;17.30;99.90;;;;;;5014347;28;20925;-74
2023/05/12 09:13:32;;;;;;;4.80;4.40;;;17.40;99.90;;;;;;5013726;28;20489;-74
2023/05/12 09:15:59;;;;;;;3.73;3.43;;;17.30;99.90;;;;;;5014198;28;20418;-75
2023/05/12 09:18:25;;;;;;;3.83;3.50;;;17.40;99.90;;;;;;4995635;28;20863;-74
2023/05/12 09:20:51;;;;;;;4.87;4.47;;;17.50;99.90;;;;;;5013087;28;20932;-75
2023/05/12 09:23:19;;;;;;;4.90;4.40;;;17.40;99.90;;;;;;5013435;28;20410;-75
2023/05/12 09:25:48;;;;;;;4.37;3.97;;;17.20;99.90;;;;;;5013131;28;20199;-75
2023/05/12 09:28:13;;;;;;;4.90;3.57;;;17.30;99.90;;;;;;5009677;28;20485;-74
2023/05/12 09:30:41;;;;;;;4.00;3.70;;;17.10;99.90;;;;;;5006250;28;20404;-74
2023/05/12 09:33:11;;;;;;;6.60;6.10;;;16.40;99.90;;;;;;5006480;28;20195;-75
2023/05/12 09:35:42;;;;;;;5.80;5.30;;;16.10;99.90;;;;;;5005548;28;20396;-74
2023/05/12 09:38:09;;;;;;;4.70;4.40;;;16.20;99.90;;;;;;5006402;28;20405;-75
2023/05/12 09:40:35;;;;;;;6.60;6.10;;;16.50;99.90;;;;;;5010474;28;20401;-74
2023/05/12 09:43:02;;;;;;;7.27;6.60;;;16.50;99.90;;;;;;5009047;28;20469;-74
2023/05/12 09:45:27;;;;;;;5.27;4.87;;;16.80;99.90;;;;;;5016538;28;20172;-73
2023/05/12 09:47:53;;;;;;;6.07;5.57;;;16.90;99.90;;;;;;5016615;28;20413;-75
2023/05/12 09:50:18;;;;;;;5.80;5.30;;;16.80;99.90;;;;;;5016128;28;20186;-75
2023/05/12 09:52:44;;;;;;;5.90;5.43;;;16.90;99.90;;;;;;5016799;28;20184;-75
2023/05/12 09:55:11;;;;;;;5.10;4.70;;;17.20;99.90;;;;;;5016855;28;20164;-75
2023/05/12 09:57:43;;;;;;;6.20;5.70;;;17.20;99.90;;;;;;5016788;28;20171;-74
2023/05/12 10:00:16;;;;;;;5.83;5.33;;;17.20;99.90;;;;;;4998894;28;20407;-74
2023/05/12 10:02:42;;;;;;;5.73;5.23;;;17.60;99.90;;;;;;5048727;23;20499;-72
2023/05/12 10:05:19;;;;;;;5.13;4.73;;;17.90;99.90;;;;;;5055537;28;20475;-72
2023/05/12 10:07:49;;;;;;;4.17;3.87;;;18.40;99.90;;;;;;5054006;28;20399;-73
2023/05/12 10:10:18;;;;;;;4.90;4.17;;;18.20;99.90;;;;;;5044019;28;20387;-72
2023/05/12 10:12:44;;;;;;;5.43;5.03;;;17.70;99.90;;;;;;5044616;28;20430;-72
2023/05/12 10:15:11;;;;;;;4.10;3.80;;;17.60;99.90;;;;;;5044758;28;20416;-72
2023/05/12 10:17:39;;;;;;;5.27;4.87;;;17.40;99.90;;;;;;5046280;28;20393;-72
2023/05/12 10:20:06;;;;;;;4.33;4.03;;;17.00;99.90;;;;;;5044807;28;20475;-72
2023/05/12 10:22:33;;;;;;;4.70;4.30;;;17.30;99.90;;;;;;5026802;28;20444;-72
2023/05/12 10:25:03;;;;;;;4.50;4.20;;;17.40;99.90;;;;;;5046132;28;20403;-72
2023/05/12 10:27:32;;;;;;;4.97;4.47;;;17.80;99.90;;;;;;5045277;28;20410;-72
2023/05/12 10:30:00;;;;;;;4.10;3.80;;;17.50;99.90;;;;;;5044119;28;20441;-72
2023/05/12 10:32:25;;;;;;;3.90;3.60;;;18.10;99.90;;;;;;5045731;28;20421;-72
2023/05/12 10:34:51;;;;;;;4.50;4.10;;;18.60;99.90;;;;;;5045071;28;20413;-73
2023/05/12 10:37:17;;;;;;;4.60;4.30;;;18.70;99.90;;;;;;5026175;28;20264;-72
2023/05/12 10:39:51;;;;;;;4.77;4.37;;;18.80;99.90;;;;;;5045651;28;20178;-72
2023/05/12 10:42:24;;;;;;;4.60;4.20;;;18.90;99.90;;;;;;5049164;28;20190;-72
2023/05/12 10:44:55;;;;;;;4.77;4.37;;;18.70;99.90;;;;;;5045157;28;20414;-72
2023/05/12 10:47:28;;;;;;;4.77;4.37;;;18.30;99.90;;;;;;5041985;28;20417;-72
2023/05/12 10:49:59;;;;;;;5.33;4.83;;;18.30;99.90;;;;;;5025484;28;20444;-72
2023/05/12 10:52:25;;;;;;;5.40;4.90;;;18.10;99.90;;;;;;5040652;28;20515;-72
2023/05/12 10:54:59;;;;;;;4.93;4.27;;;17.60;99.90;;;;;;5045229;28;20403;-72
2023/05/12 10:57:25;;;;;;;6.43;5.83;;;17.50;99.90;;;;;;5031978;28;20171;-71
2023/05/12 11:00:00;;;;;;;6.33;5.70;;;17.20;99.90;;;;;;5032870;28;20433;-72
2023/05/12 11:02:29;;;;;;;5.50;5.00;;;17.00;99.90;;;;;;5035530;28;20486;-72
2023/05/12 11:05:00;;;;;;;5.40;5.00;;;16.80;99.90;;;;;;5034729;28;20441;-72
2023/05/12 11:07:33;;;;;;;4.80;4.33;;;17.00;99.90;;;;;;5035080;28;20436;-71
2023/05/12 11:10:01;;;;;;;5.10;4.60;;;16.90;99.90;;;;;;5034971;28;20433;-72
2023/05/12 11:12:30;;;;;;;5.40;4.37;;;16.70;99.90;;;;;;5034878;28;20447;-71
2023/05/12 11:14:58;;;;;;;4.37;4.07;;;16.70;99.90;;;;;;5034880;28;20417;-72
2023/05/12 11:17:24;;;;;;;5.20;4.70;;;16.80;99.90;;;;;;5035010;28;20406;-72
2023/05/12 11:19:51;;;;;;;5.30;4.80;;;16.50;99.90;;;;;;5037140;28;20431;-72
2023/05/12 11:22:19;;;;;;;4.50;4.20;;;16.40;99.90;;;;;;5041800;28;20229;-72
2023/05/12 11:24:45;;;;;;;4.50;4.10;;;16.30;99.90;;;;;;5041207;28;20414;-73
2023/05/12 11:27:17;;;;;;;3.90;3.60;;;16.20;99.90;;;;;;5041198;28;20401;-73
2023/05/12 11:29:45;;;;;;;4.20;3.80;;;16.40;99.90;;;;;;5047884;28;20679;-72
2023/05/12 11:32:14;;;;;;;4.10;3.80;;;16.20;99.90;;;;;;5054096;28;20486;-72
2023/05/12 11:34:40;;;;;;;4.20;3.90;;;16.10;99.90;;;;;;5036318;28;20452;-72
2023/05/12 11:37:06;;;;;;;5.13;4.13;;;15.90;99.90;;;;;;5053842;28;20402;-73
2023/05/12 11:39:31;;;;;;;4.77;3.90;;;15.60;99.90;;;;;;5054436;28;20404;-72
2023/05/12 11:42:08;;;;;;;4.37;4.07;;;15.70;99.90;;;;;;5054611;28;20272;-71
2023/05/12 11:44:34;;;;;;;4.30;3.83;;;15.90;99.90;;;;;;5033344;28;20609;-72
2023/05/12 11:47:03;;;;;;;5.10;4.70;;;16.10;99.90;;;;;;5018654;28;20786;-71
2023/05/12 11:49:30;;;;;;;5.10;4.60;;;16.30;99.90;;;;;;5015513;28;20507;-71
2023/05/12 11:51:58;;;;;;;4.73;4.40;;;16.50;99.90;;;;;;5033740;28;20483;-72
2023/05/12 11:54:24;;;;;;;4.60;3.87;;;16.90;99.90;;;;;;5034493;28;20441;-72
2023/05/12 11:56:51;;;;;;;4.23;3.43;;;16.70;99.90;;;;;;5033843;28;20444;-71
2023/05/12 11:59:33;;;;;;;3.80;3.50;;;17.00;99.90;;;;;;5033233;28;20442;-72
2023/05/12 12:02:01;;;;;;;3.30;3.10;;;17.10;99.90;;;;;;5033461;28;20532;-71
2023/05/12 12:04:34;;;;;;;3.60;3.30;;;17.30;99.90;;;;;;5033879;28;20413;-71
2023/05/12 12:07:00;;;;;;;3.83;3.53;;;17.20;99.90;;;;;;5015661;28;20422;-71
2023/05/12 12:09:39;;;;;;;5.40;2.70;;;17.30;99.90;;;;;;5033610;28;20537;-71
2023/05/12 12:12:06;;;;;;;3.33;3.03;;;17.70;99.90;;;;;;5033569;28;20978;-71
2023/05/12 12:14:33;;;;;;;2.90;2.70;;;17.90;99.90;;;;;;5032971;28;20772;-71
2023/05/12 12:16:59;;;;;;;3.40;3.10;;;18.00;99.90;;;;;;5033525;28;20958;-71
2023/05/12 12:19:26;;;;;;;2.90;2.70;;;18.20;99.90;;;;;;5033821;28;20402;-72
2023/05/12 12:21:52;;;;;;;3.20;3.00;;;18.50;99.90;;;;;;5033135;28;20187;-72
2023/05/12 12:24:18;;;;;;;3.60;3.30;;;19.60;99.90;;;;;;5033799;28;20405;-71
2023/05/12 12:26:43;;;;;;;3.80;3.40;;;19.90;99.90;;;;;;5033535;28;20924;-71
2023/05/12 12:29:09;;;;;;;3.97;3.67;;;19.70;99.90;;;;;;5015613;28;20222;-72
2023/05/12 12:31:35;;;;;;;3.60;3.30;;;20.70;99.90;;;;;;5015796;28;20167;-72
2023/05/12 12:34:02;;;;;;;3.77;3.47;;;21.10;99.90;;;;;;5033440;28;20195;-71